Aeroporto :
LOGIN :

Iscrizione | Disclaimer

   EN    FR    IT 

 










Sommario :    VFR   VFR Marginale   IFR   IFR Intensivo   IFR Molto Intensivo
Visibilità : 
Base nubi : 
>= 8 km
>= 3000ft
5 / 8 km
1000 / 3000 ft
1500m / 5 km
500 / 1000 ft
800 / 1500m
200 / 500 ft
< 800m
< 200 ft
Simboli :   Temporali  Nebbia  Neve Forte  Precipitazioni Forti  Vento > 20 kt
SIGMETs :   Varie  Temporali  Ghiacco  Turbolenza  Onda orograficha  Ceneri Vulcaniche






- Altitudine del aeroporto : 124 ft
- Codice IATA : RNS


LFRN - Rennes

ULTIMO METAR :
  • 121900Z AUTO 26007KT CAVOK 05/03 Q1006 NOSIG

METARs OBSOLETI :
  • 121830Z AUTO 24007KT CAVOK 05/03 Q1006 NOSIG
  • 121800Z AUTO 24005KT CAVOK 05/03 Q1006 NOSIG
  • 121730Z AUTO 25005KT CAVOK 06/03 Q1006 NOSIG
  • 121700Z AUTO 27006KT 9999 FEW016 SCT074 BKN092 06/03 Q1006 TEMPO 27015G25KT 4000 SHRAGS BKN020TCU
  • 121630Z AUTO 29006KT 9999 BKN046 BKN058 BKN072 06/04 Q1006 TEMPO 27015G25KT 4000 SHRAGS BKN020TCU

TAF TAF LFRN
Valido dal 12 a 18 ore il 13 a 18 ore UTC


121700Z 1218/1318 26010KT 9999 BKN030
PROB30
TEMPO 1302/1307 5000 SHRA
BECMG 1313/1315 19010KT
BECMG 1316/1318 18015G25KT
TEMPO 1317/1318 3000 RA BKN005 BKN015CB
ATIS : +33 2 99 67 72 50



MetMap, La meteo Aeronautica in un colpo d'occhio ! - Copyright ORBIFLY Dicembre 2007 - Disclaimer

ORBIFLY MET'MAP TEAM :

Programmazione e sviluppo : Alexandra Zaïnal
Concezione e sviluppo : Baudouin d'Aumeries
Co-Programmazione e sviluppo : Marc-Olivier Méhu
Supporto tecnico e logistico : Manuel Goepfert
Aiuto per la traduzione : Arnaldo La Scala

Contatto : metmap@orbifly.com




FONTI E CREDITI :

   NOAA